Time;durP1;ratioP1;P1;durP2;ratioP2;P2;SDS_P1;SDS_P2;PMS_P1;PMS_P2;Temp;Humidity;BMP_temperature;BMP_pressure;BME280_temperature;BME280_humidity;BME280_pressure;Samples;Min_cycle;Max_cycle;Signal;HPM_P1;HPM_P2
2021/01/07 00:00:22;;;;;;;2.67;1.30;;;3.60;99.90;;;;;;5069444;28;20217;-57
2021/01/07 00:02:48;;;;;;;7.67;4.47;;;3.50;99.90;;;;;;5068451;28;20242;-59
2021/01/07 00:05:13;;;;;;;2.07;0.93;;;3.50;99.90;;;;;;5067958;28;20685;-59
2021/01/07 00:07:39;;;;;;;7.87;4.73;;;3.50;99.90;;;;;;5067740;28;20189;-58
2021/01/07 00:10:05;;;;;;;4.33;1.57;;;3.40;99.90;;;;;;5071355;28;20215;-59
2021/01/07 00:12:31;;;;;;;9.63;5.65;;;3.50;99.90;;;;;;5067816;28;20235;-59
2021/01/07 00:14:57;;;;;;;3.67;1.63;;;3.40;99.90;;;;;;5071089;28;20627;-59
2021/01/07 00:17:22;;;;;;;10.07;6.03;;;3.50;99.90;;;;;;5065458;28;20181;-59
2021/01/07 00:19:47;;;;;;;4.23;1.97;;;3.40;99.90;;;;;;5072108;28;20223;-58
2021/01/07 00:22:13;;;;;;;4.10;2.10;;;3.50;99.90;;;;;;5070088;28;20173;-58
2021/01/07 00:24:39;;;;;;;4.90;3.10;;;3.50;99.90;;;;;;5081974;28;20194;-57
2021/01/07 00:27:04;;;;;;;10.93;6.23;;;3.60;99.90;;;;;;5088046;28;20180;-60
2021/01/07 00:29:30;;;;;;;5.07;2.93;;;3.60;99.90;;;;;;5075233;28;20184;-59
2021/01/07 00:31:55;;;;;;;4.83;2.00;;;3.50;99.90;;;;;;5067460;28;20187;-58
2021/01/07 00:34:21;;;;;;;5.13;3.13;;;3.50;99.90;;;;;;5071370;28;20205;-58
2021/01/07 00:36:53;;;;;;;2.33;2.00;;;3.60;99.90;;;;;;5068421;28;20773;-56
2021/01/07 00:39:18;;;;;;;1.77;0.35;;;3.60;99.90;;;;;;5065904;28;20187;-59
2021/01/07 00:41:44;;;;;;;4.90;0.87;;;3.60;99.90;;;;;;5067383;28;20201;-58
2021/01/07 00:44:09;;;;;;;1.70;0.20;;;3.60;99.90;;;;;;5070765;28;20656;-59
2021/01/07 00:46:35;;;;;;;13.23;5.07;;;3.60;99.90;;;;;;5068190;28;20191;-58
2021/01/07 00:49:00;;;;;;;6.33;5.53;;;3.60;99.90;;;;;;5076074;28;20183;-61
2021/01/07 00:51:32;;;;;;;3.03;2.60;;;3.60;99.90;;;;;;5067135;28;20243;-58
2021/01/07 00:53:58;;;;;;;2.17;1.77;;;3.70;99.90;;;;;;5072808;28;20191;-59
2021/01/07 00:56:23;;;;;;;1.80;0.40;;;3.70;99.90;;;;;;5070773;28;20620;-58
2021/01/07 00:58:49;;;;;;;1.73;0.20;;;3.70;99.90;;;;;;5071149;28;20242;-57
2021/01/07 01:01:15;;;;;;;3.07;2.30;;;3.70;99.90;;;;;;5072689;28;20204;-58
2021/01/07 01:03:40;;;;;;;15.13;8.30;;;3.70;99.90;;;;;;5074461;28;20243;-59
2021/01/07 01:06:06;;;;;;;1.70;0.20;;;3.60;99.90;;;;;;5065191;28;20218;-58
2021/01/07 01:08:31;;;;;;;2.40;0.63;;;3.60;99.90;;;;;;5071857;28;20229;-58
2021/01/07 01:10:57;;;;;;;12.87;8.13;;;3.60;99.90;;;;;;5074328;28;20265;-58
2021/01/07 01:13:22;;;;;;;4.60;2.10;;;3.60;99.90;;;;;;5069458;28;20648;-58
2021/01/07 01:15:48;;;;;;;18.23;8.67;;;3.60;99.90;;;;;;5070524;28;20275;-57
2021/01/07 01:18:13;;;;;;;10.63;4.97;;;3.50;99.90;;;;;;5072554;28;20185;-58
2021/01/07 01:20:39;;;;;;;12.47;5.17;;;3.40;99.90;;;;;;5070419;28;20209;-58
2021/01/07 01:23:06;;;;;;;15.47;9.00;;;3.40;99.90;;;;;;5074208;28;20821;-58
2021/01/07 01:25:31;;;;;;;1.70;0.20;;;3.40;99.90;;;;;;5072225;28;20192;-58
2021/01/07 01:27:57;;;;;;;6.73;4.40;;;3.40;99.90;;;;;;5072470;28;20286;-58
2021/01/07 01:30:23;;;;;;;11.63;7.00;;;3.40;99.90;;;;;;5070969;28;20197;-58
2021/01/07 01:32:48;;;;;;;6.80;4.10;;;3.30;99.90;;;;;;5067152;28;20430;-58
2021/01/07 01:35:14;;;;;;;3.00;1.70;;;3.40;99.90;;;;;;5073277;28;20675;-58
2021/01/07 01:37:41;;;;;;;12.43;7.33;;;3.40;99.90;;;;;;5073920;28;20177;-58
2021/01/07 01:40:09;;;;;;;7.43;5.20;;;3.40;99.90;;;;;;5066764;28;20559;-58
2021/01/07 01:42:35;;;;;;;9.07;6.70;;;3.40;99.90;;;;;;5071439;28;20531;-57
2021/01/07 01:45:01;;;;;;;10.93;6.60;;;3.40;99.90;;;;;;5072879;28;20189;-58
2021/01/07 01:47:26;;;;;;;3.40;2.50;;;3.40;99.90;;;;;;5071671;28;20196;-58
2021/01/07 01:49:54;;;;;;;1.70;0.20;;;3.40;99.90;;;;;;5073673;28;21721;-57
2021/01/07 01:52:22;;;;;;;10.70;6.82;;;3.40;99.90;;;;;;5072879;28;20443;-58
2021/01/07 01:54:47;;;;;;;12.63;5.60;;;3.40;99.90;;;;;;5070168;28;20284;-58
2021/01/07 01:57:14;;;;;;;3.83;1.90;;;3.40;99.90;;;;;;5074063;28;20261;-58
2021/01/07 01:59:41;;;;;;;13.45;5.63;;;3.40;99.90;;;;;;5072021;28;20188;-58
2021/01/07 02:02:15;;;;;;;2.30;1.40;;;3.40;99.90;;;;;;5071367;28;20197;-58
2021/01/07 02:04:41;;;;;;;1.85;0.40;;;3.40;99.90;;;;;;5072396;28;20204;-59
2021/01/07 02:07:09;;;;;;;1.70;0.20;;;3.40;99.90;;;;;;5072198;28;20611;-58
2021/01/07 02:09:36;;;;;;;1.73;0.30;;;3.40;99.90;;;;;;5067739;28;20268;-58
2021/01/07 02:12:02;;;;;;;13.30;6.82;;;3.40;99.90;;;;;;5077328;28;20181;-60
2021/01/07 02:14:27;;;;;;;2.00;0.83;;;3.50;99.90;;;;;;5077021;28;20215;-59
2021/01/07 02:16:56;;;;;;;9.60;4.87;;;3.50;99.90;;;;;;5074613;28;20243;-58
2021/01/07 02:19:22;;;;;;;1.75;0.32;;;3.40;99.90;;;;;;5077220;28;20183;-58
2021/01/07 02:21:48;;;;;;;15.43;8.90;;;3.40;99.90;;;;;;5072503;28;20238;-58
2021/01/07 02:24:14;;;;;;;8.87;6.20;;;3.40;99.90;;;;;;5072429;28;20275;-58
2021/01/07 02:26:41;;;;;;;4.53;2.80;;;3.30;99.90;;;;;;5077246;28;20195;-58
2021/01/07 02:29:07;;;;;;;3.20;2.35;;;3.30;99.90;;;;;;5076092;28;20189;-58
2021/01/07 02:31:33;;;;;;;1.90;0.40;;;3.30;99.90;;;;;;5092896;28;20207;-58
2021/01/07 02:33:58;;;;;;;3.83;1.03;;;3.30;99.90;;;;;;5093549;28;20192;-58
2021/01/07 02:36:24;;;;;;;1.70;0.20;;;3.20;99.90;;;;;;5097690;28;20172;-58
2021/01/07 02:38:49;;;;;;;4.87;3.17;;;3.30;99.90;;;;;;5093733;28;20187;-60
2021/01/07 02:41:15;;;;;;;1.70;0.20;;;3.30;99.90;;;;;;5095236;28;20184;-58
2021/01/07 02:43:40;;;;;;;3.70;2.03;;;3.30;99.90;;;;;;5090990;28;20216;-59
2021/01/07 02:46:15;;;;;;;2.27;0.87;;;3.40;99.90;;;;;;5094432;28;20188;-58
2021/01/07 02:48:41;;;;;;;6.30;1.85;;;3.40;99.90;;;;;;5090334;28;20215;-58
2021/01/07 02:51:06;;;;;;;15.27;9.67;;;3.40;99.90;;;;;;5093837;28;20208;-59
2021/01/07 02:53:32;;;;;;;4.67;2.73;;;3.40;99.90;;;;;;5082118;28;20386;-59
2021/01/07 02:55:57;;;;;;;5.13;2.63;;;3.40;99.90;;;;;;5070421;28;20567;-60
2021/01/07 02:58:23;;;;;;;1.80;0.20;;;3.40;99.90;;;;;;5071493;28;20187;-58
2021/01/07 03:00:48;;;;;;;5.80;3.67;;;3.40;99.90;;;;;;5067973;28;20220;-58
2021/01/07 03:03:13;;;;;;;1.73;0.30;;;3.40;99.90;;;;;;5064836;28;20260;-58
2021/01/07 03:05:39;;;;;;;3.77;1.90;;;3.40;99.90;;;;;;5070543;28;20227;-58
2021/01/07 03:08:05;;;;;;;4.73;4.43;;;3.40;99.90;;;;;;5064658;28;20204;-59
2021/01/07 03:10:30;;;;;;;5.57;3.23;;;3.40;99.90;;;;;;5069588;28;20691;-58
2021/01/07 03:12:56;;;;;;;5.03;3.17;;;3.40;99.90;;;;;;5072713;28;20405;-58
2021/01/07 03:15:21;;;;;;;7.70;1.63;;;3.30;99.90;;;;;;5071556;28;20200;-58
2021/01/07 03:17:47;;;;;;;5.37;3.40;;;3.30;99.90;;;;;;5067366;28;20192;-58
2021/01/07 03:20:14;;;;;;;4.47;1.83;;;3.30;99.90;;;;;;5071656;28;20734;-58
2021/01/07 03:22:41;;;;;;;1.75;0.35;;;3.30;99.90;;;;;;5065457;28;20201;-58
2021/01/07 03:25:10;;;;;;;3.55;2.58;;;3.40;99.90;;;;;;5065199;28;20759;-58
2021/01/07 03:27:37;;;;;;;6.65;3.25;;;3.40;99.90;;;;;;5069874;28;20225;-58
2021/01/07 03:30:07;;;;;;;6.47;4.13;;;3.40;99.90;;;;;;5067882;28;20208;-58
2021/01/07 03:32:33;;;;;;;3.45;1.17;;;3.30;99.90;;;;;;5069798;28;20180;-58
2021/01/07 03:34:58;;;;;;;3.83;1.90;;;3.30;99.90;;;;;;5071210;28;20341;-58
2021/01/07 03:37:24;;;;;;;3.13;2.50;;;3.30;99.90;;;;;;5063755;28;20442;-58
2021/01/07 03:39:49;;;;;;;4.63;2.67;;;3.30;99.90;;;;;;5067433;28;20197;-60
2021/01/07 03:42:15;;;;;;;10.70;6.33;;;3.30;99.90;;;;;;5073495;28;20172;-58
2021/01/07 03:44:40;;;;;;;3.43;1.60;;;3.30;99.90;;;;;;5070952;28;20192;-58
2021/01/07 03:47:06;;;;;;;11.30;8.40;;;3.20;99.90;;;;;;5067909;28;20594;-58
2021/01/07 03:49:32;;;;;;;5.37;3.00;;;3.10;99.90;;;;;;5071610;28;20188;-58
2021/01/07 03:51:58;;;;;;;10.27;6.07;;;3.10;99.90;;;;;;5068239;28;20830;-58
2021/01/07 03:54:23;;;;;;;3.40;1.40;;;3.20;99.90;;;;;;5069390;28;20208;-58
2021/01/07 03:56:49;;;;;;;7.30;3.90;;;3.20;99.90;;;;;;5064691;28;20660;-58
2021/01/07 03:59:14;;;;;;;3.20;1.37;;;3.20;99.90;;;;;;5063771;28;20212;-58
2021/01/07 04:01:40;;;;;;;14.77;5.80;;;3.20;99.90;;;;;;5071562;28;20705;-58
2021/01/07 04:04:05;;;;;;;9.53;8.00;;;3.20;99.90;;;;;;5067833;28;20196;-58
2021/01/07 04:06:31;;;;;;;2.00;0.63;;;3.20;99.90;;;;;;5067529;28;20195;-58
2021/01/07 04:08:56;;;;;;;2.53;0.90;;;3.20;99.90;;;;;;5068929;28;20574;-58
2021/01/07 04:11:22;;;;;;;6.47;4.90;;;3.20;99.90;;;;;;5063279;28;20224;-58
2021/01/07 04:13:47;;;;;;;2.30;1.70;;;3.20;99.90;;;;;;5066268;28;20177;-57
2021/01/07 04:16:13;;;;;;;1.90;0.50;;;3.20;99.90;;;;;;5070491;28;20192;-57
2021/01/07 04:18:39;;;;;;;13.10;8.50;;;3.20;99.90;;;;;;5050165;28;20185;-57
2021/01/07 04:21:05;;;;;;;2.27;1.40;;;3.20;99.90;;;;;;5070408;28;20949;-57
2021/01/07 04:23:30;;;;;;;5.03;1.43;;;3.20;99.90;;;;;;5071227;28;20770;-58
2021/01/07 04:25:56;;;;;;;7.57;4.60;;;3.20;99.90;;;;;;5069662;28;20184;-57
2021/01/07 04:28:21;;;;;;;13.33;2.47;;;3.20;99.90;;;;;;5067752;28;20204;-57
2021/01/07 04:30:47;;;;;;;2.87;1.27;;;3.20;99.90;;;;;;5069369;28;20223;-57
2021/01/07 04:33:12;;;;;;;2.00;0.73;;;3.10;99.90;;;;;;5066114;28;20192;-57
2021/01/07 04:35:38;;;;;;;2.43;0.73;;;3.20;99.90;;;;;;5071116;28;20265;-58
2021/01/07 04:38:04;;;;;;;1.70;0.20;;;3.20;99.90;;;;;;5065371;28;20690;-57
2021/01/07 04:40:30;;;;;;;5.40;2.37;;;3.20;99.90;;;;;;5066852;28;20451;-57
2021/01/07 04:42:56;;;;;;;4.13;1.70;;;3.20;99.90;;;;;;5067514;28;20177;-57
2021/01/07 04:45:22;;;;;;;4.80;2.40;;;3.20;99.90;;;;;;5062960;28;20314;-57
2021/01/07 04:47:49;;;;;;;2.30;1.70;;;3.20;99.90;;;;;;5067977;28;20261;-57
2021/01/07 04:50:14;;;;;;;4.90;2.45;;;3.20;99.90;;;;;;5070831;28;20455;-57
2021/01/07 04:52:40;;;;;;;8.73;3.10;;;3.20;99.90;;;;;;5070293;28;20199;-58
2021/01/07 04:55:07;;;;;;;3.00;1.10;;;3.20;99.90;;;;;;5071852;28;20555;-58
2021/01/07 04:57:33;;;;;;;6.53;4.00;;;3.20;99.90;;;;;;5065681;28;20172;-57
2021/01/07 04:59:58;;;;;;;13.23;2.00;;;3.20;99.90;;;;;;5065107;28;20544;-57
2021/01/07 05:02:25;;;;;;;25.53;4.13;;;3.30;99.90;;;;;;5070591;28;20469;-59
2021/01/07 05:04:52;;;;;;;16.15;14.63;;;3.20;99.90;;;;;;5067707;28;20551;-58
2021/01/07 05:07:21;;;;;;;2.00;1.05;;;3.20;99.90;;;;;;5066758;28;20185;-57
2021/01/07 05:09:58;;;;;;;1.70;0.20;;;3.10;99.90;;;;;;5082193;28;20216;-58
2021/01/07 05:12:23;;;;;;;10.23;5.10;;;3.10;99.90;;;;;;5091034;28;20189;-58
2021/01/07 05:14:49;;;;;;;2.30;0.90;;;3.20;99.90;;;;;;5088790;28;20208;-58
2021/01/07 05:17:16;;;;;;;7.73;4.00;;;3.20;99.90;;;;;;5094767;28;20176;-58
2021/01/07 05:19:47;;;;;;;2.30;0.93;;;3.20;99.90;;;;;;5090747;28;20244;-59
2021/01/07 05:22:13;;;;;;;1.77;0.30;;;3.20;99.90;;;;;;5090186;28;20189;-58
2021/01/07 05:24:40;;;;;;;1.70;0.20;;;3.20;99.90;;;;;;5092610;28;20211;-58
2021/01/07 05:27:15;;;;;;;7.70;3.67;;;3.20;99.90;;;;;;5087421;28;20655;-58
2021/01/07 05:29:41;;;;;;;4.57;2.70;;;3.20;99.90;;;;;;5092760;28;20215;-57
2021/01/07 05:32:09;;;;;;;5.72;3.90;;;3.10;99.90;;;;;;5095182;28;20438;-57
2021/01/07 05:34:48;;;;;;;7.60;4.18;;;3.10;99.90;;;;;;5088426;28;20214;-59
2021/01/07 05:37:20;;;;;;;5.47;3.30;;;3.10;99.90;;;;;;5092341;28;20172;-57
2021/01/07 05:39:49;;;;;;;7.18;5.22;;;3.10;99.90;;;;;;5094638;28;20236;-57
2021/01/07 05:42:16;;;;;;;1.70;0.20;;;3.00;99.90;;;;;;5076823;28;20199;-58
2021/01/07 05:44:44;;;;;;;1.70;0.30;;;3.10;99.90;;;;;;5074625;28;20197;-58
2021/01/07 05:47:21;;;;;;;5.95;3.08;;;3.20;99.90;;;;;;5075059;28;20235;-58
2021/01/07 05:49:47;;;;;;;1.70;0.20;;;3.20;99.90;;;;;;5074671;28;20211;-57
2021/01/07 05:52:14;;;;;;;6.47;3.08;;;3.20;99.90;;;;;;5068142;28;20189;-58
2021/01/07 05:54:42;;;;;;;5.03;1.95;;;3.10;99.90;;;;;;5091832;28;20220;-61
2021/01/07 05:57:11;;;;;;;2.97;0.85;;;3.10;99.90;;;;;;5094639;28;20180;-58
2021/01/07 05:59:38;;;;;;;3.08;0.93;;;3.10;99.90;;;;;;5096644;28;20182;-58
2021/01/07 06:02:04;;;;;;;2.85;1.00;;;3.10;99.90;;;;;;5078933;28;20170;-58
2021/01/07 06:04:33;;;;;;;6.20;2.88;;;3.10;99.90;;;;;;5095107;28;20164;-65
2021/01/07 06:07:04;;;;;;;1.70;0.20;;;3.10;99.90;;;;;;5095745;28;20340;-57
2021/01/07 06:09:30;;;;;;;1.77;0.20;;;3.20;99.90;;;;;;5094288;28;20184;-57
2021/01/07 06:11:59;;;;;;;2.90;1.05;;;3.20;99.90;;;;;;5091499;28;20203;-58
2021/01/07 06:14:25;;;;;;;1.80;0.30;;;3.20;99.90;;;;;;5091139;28;20211;-57
2021/01/07 06:16:53;;;;;;;3.13;1.38;;;3.20;99.90;;;;;;5083331;28;20269;-58
2021/01/07 06:19:40;;;;;;;4.93;3.10;;;3.10;99.90;;;;;;5069118;28;20180;-57
2021/01/07 06:22:09;;;;;;;2.25;1.13;;;3.10;99.90;;;;;;5070829;28;20189;-57
2021/01/07 06:24:37;;;;;;;12.57;5.95;;;3.10;99.90;;;;;;5072771;28;20588;-58
2021/01/07 06:27:27;;;;;;;3.63;2.53;;;3.10;99.90;;;;;;5074374;28;20196;-57
2021/01/07 06:30:11;;;;;;;5.55;2.50;;;3.10;99.90;;;;;;5068090;28;20211;-58
2021/01/07 06:32:40;;;;;;;1.70;0.20;;;3.00;99.90;;;;;;5066777;28;20181;-58
2021/01/07 06:35:10;;;;;;;15.32;9.20;;;3.10;99.90;;;;;;5076269;28;20204;-58
2021/01/07 06:37:40;;;;;;;15.10;9.57;;;3.10;99.90;;;;;;5074415;28;20238;-58
2021/01/07 06:40:08;;;;;;;11.73;8.65;;;3.00;99.90;;;;;;5072243;28;20212;-57
2021/01/07 06:42:53;;;;;;;1.70;0.20;;;3.00;99.90;;;;;;5072664;28;20184;-57
2021/01/07 06:45:24;;;;;;;2.00;0.60;;;3.10;99.90;;;;;;5069305;28;20196;-57
2021/01/07 06:47:52;;;;;;;11.60;5.70;;;3.10;99.90;;;;;;5071773;28;20186;-58
2021/01/07 06:50:18;;;;;;;2.10;0.75;;;3.10;99.90;;;;;;5069128;28;20208;-57
2021/01/07 06:52:48;;;;;;;2.37;1.17;;;3.10;99.90;;;;;;5056588;28;20184;-58
2021/01/07 06:55:16;;;;;;;7.50;3.55;;;3.00;99.90;;;;;;5070270;28;20253;-57
2021/01/07 06:57:49;;;;;;;2.00;0.55;;;3.00;99.90;;;;;;5073166;28;20271;-57
2021/01/07 07:00:17;;;;;;;13.20;8.10;;;3.10;99.90;;;;;;5064211;28;20235;-58
2021/01/07 07:02:57;;;;;;;13.82;8.65;;;3.10;99.90;;;;;;5069943;28;20180;-59
2021/01/07 07:05:25;;;;;;;8.65;6.65;;;3.00;99.90;;;;;;5072647;28;20198;-58
2021/01/07 07:08:08;;;;;;;3.60;0.88;;;2.90;99.90;;;;;;5083985;28;20190;-57
2021/01/07 07:10:33;;;;;;;4.50;2.38;;;2.90;99.90;;;;;;5074954;28;20283;-57
2021/01/07 07:13:31;;;;;;;9.17;3.97;;;2.90;99.90;;;;;;5074766;28;20698;-58
2021/01/07 07:16:01;;;;;;;2.38;1.60;;;2.80;99.90;;;;;;5069865;28;20224;-58
2021/01/07 07:18:37;;;;;;;6.07;3.58;;;2.90;99.90;;;;;;5069723;28;20177;-58
2021/01/07 07:21:21;;;;;;;3.83;2.90;;;2.80;99.90;;;;;;5071517;28;20292;-58
2021/01/07 07:23:47;;;;;;;12.98;6.65;;;2.90;99.90;;;;;;5071656;28;20197;-58
2021/01/07 07:26:40;;;;;;;2.35;0.98;;;2.90;99.90;;;;;;5064982;28;20184;-58
2021/01/07 07:29:11;;;;;;;6.75;4.05;;;3.00;99.90;;;;;;5071984;28;20215;-59
2021/01/07 07:31:40;;;;;;;1.80;0.20;;;3.00;99.90;;;;;;5090884;28;20204;-58
2021/01/07 07:34:06;;;;;;;1.70;0.20;;;3.00;99.90;;;;;;5077106;28;20294;-58
2021/01/07 07:36:33;;;;;;;1.70;0.20;;;3.10;99.90;;;;;;5070547;28;20184;-57
2021/01/07 07:38:59;;;;;;;2.00;0.65;;;3.10;99.90;;;;;;5069013;28;20455;-57
2021/01/07 07:41:28;;;;;;;3.30;3.00;;;3.00;99.90;;;;;;5064565;28;20189;-58
2021/01/07 07:43:55;;;;;;;4.72;3.40;;;3.10;99.90;;;;;;5069196;28;20467;-57
2021/01/07 07:46:27;;;;;;;1.73;0.20;;;3.10;99.90;;;;;;5070950;28;20202;-57
2021/01/07 07:49:00;;;;;;;1.70;0.20;;;3.10;99.90;;;;;;5066236;28;20268;-57
2021/01/07 07:51:26;;;;;;;11.65;7.57;;;3.10;99.90;;;;;;5070228;28;20265;-59
2021/01/07 07:54:02;;;;;;;13.48;3.70;;;3.10;99.90;;;;;;5065666;28;20241;-58
2021/01/07 07:56:28;;;;;;;1.70;0.20;;;3.10;99.90;;;;;;5063051;28;20188;-60
2021/01/07 07:58:58;;;;;;;1.70;0.20;;;3.10;99.90;;;;;;5067891;28;21319;-58
2021/01/07 08:01:43;;;;;;;3.83;1.80;;;3.20;99.90;;;;;;5064106;28;20204;-57
2021/01/07 08:04:14;;;;;;;3.20;1.23;;;3.20;99.90;;;;;;5060777;28;20678;-58
2021/01/07 08:06:39;;;;;;;12.77;4.20;;;3.10;99.90;;;;;;5062873;28;20198;-58
2021/01/07 08:09:10;;;;;;;2.73;1.70;;;3.10;99.90;;;;;;5064523;28;20276;-57
2021/01/07 08:11:44;;;;;;;1.70;0.20;;;3.10;99.90;;;;;;5062792;28;20201;-57
2021/01/07 08:14:11;;;;;;;4.07;0.60;;;3.10;99.90;;;;;;5070619;28;20192;-58
2021/01/07 08:16:38;;;;;;;5.25;3.65;;;3.10;99.90;;;;;;5067893;28;20172;-57
2021/01/07 08:19:14;;;;;;;9.32;4.65;;;3.10;99.90;;;;;;5065584;28;20173;-57
2021/01/07 08:21:47;;;;;;;2.78;1.10;;;3.10;99.90;;;;;;5069755;28;20527;-58
2021/01/07 08:24:13;;;;;;;1.70;0.20;;;3.10;99.90;;;;;;5069491;28;20173;-57
2021/01/07 08:26:40;;;;;;;7.53;3.05;;;3.20;99.90;;;;;;5051481;28;20195;-57
2021/01/07 08:29:09;;;;;;;14.43;6.53;;;3.20;99.90;;;;;;5069155;28;20226;-64
2021/01/07 08:31:40;;;;;;;2.60;1.20;;;3.20;99.90;;;;;;5067477;28;20591;-58
2021/01/07 08:34:08;;;;;;;5.82;2.10;;;3.20;99.90;;;;;;5064351;28;20192;-58
2021/01/07 08:36:34;;;;;;;2.10;1.40;;;3.20;99.90;;;;;;5070406;28;20694;-58
2021/01/07 08:38:59;;;;;;;6.70;4.67;;;3.20;99.90;;;;;;5069788;28;20189;-58
2021/01/07 08:41:30;;;;;;;1.70;0.20;;;3.20;99.90;;;;;;5050968;28;20509;-57
2021/01/07 08:43:57;;;;;;;1.73;0.20;;;3.20;99.90;;;;;;5069614;28;20193;-57
2021/01/07 08:46:24;;;;;;;1.70;0.20;;;3.30;99.90;;;;;;5065774;28;20183;-57
2021/01/07 08:49:01;;;;;;;1.70;0.20;;;3.30;99.90;;;;;;5067663;28;20635;-57
2021/01/07 08:51:27;;;;;;;3.83;1.33;;;3.30;99.90;;;;;;5067274;28;20545;-57
2021/01/07 08:53:54;;;;;;;1.70;0.30;;;3.40;99.90;;;;;;5066657;28;20188;-57
2021/01/07 08:56:37;;;;;;;1.70;0.20;;;3.30;99.90;;;;;;5066171;28;20897;-58
2021/01/07 08:59:35;;;;;;;4.00;2.28;;;3.40;99.90;;;;;;5068436;28;20273;-57
2021/01/07 09:02:06;;;;;;;2.53;1.75;;;3.40;99.90;;;;;;5070263;28;20267;-57
2021/01/07 09:04:34;;;;;;;2.75;1.30;;;3.40;99.90;;;;;;5069015;28;20196;-57
2021/01/07 09:07:12;;;;;;;2.13;0.95;;;3.40;99.90;;;;;;5072792;28;20212;-57
2021/01/07 09:09:52;;;;;;;4.38;2.05;;;3.30;99.90;;;;;;5071754;28;20241;-57
2021/01/07 09:12:31;;;;;;;1.75;0.22;;;3.40;99.90;;;;;;5063735;28;20193;-57
2021/01/07 09:15:00;;;;;;;1.70;0.20;;;3.20;99.90;;;;;;5073337;28;20663;-57
2021/01/07 09:17:39;;;;;;;5.72;3.05;;;3.20;99.90;;;;;;5072274;28;20181;-57
2021/01/07 09:20:11;;;;;;;3.30;1.90;;;3.20;99.90;;;;;;5068644;28;20674;-57
2021/01/07 09:22:37;;;;;;;1.75;0.20;;;3.20;99.90;;;;;;5069118;28;20292;-58
2021/01/07 09:25:04;;;;;;;3.80;2.73;;;3.20;99.90;;;;;;5074668;28;20249;-57
2021/01/07 09:27:29;;;;;;;3.78;1.95;;;3.30;99.90;;;;;;5068822;28;20965;-57
2021/01/07 09:29:55;;;;;;;1.70;0.20;;;3.30;99.90;;;;;;5073534;28;20299;-57
2021/01/07 09:32:21;;;;;;;3.23;1.23;;;3.20;99.90;;;;;;5080937;28;20184;-58
2021/01/07 09:34:46;;;;;;;5.77;3.30;;;3.30;99.90;;;;;;5075000;28;20200;-58
2021/01/07 09:37:16;;;;;;;6.63;3.97;;;3.20;99.90;;;;;;5065769;28;20439;-59
2021/01/07 09:39:46;;;;;;;1.70;0.20;;;3.20;99.90;;;;;;5073095;28;20195;-59
2021/01/07 09:42:13;;;;;;;3.17;1.38;;;3.20;99.90;;;;;;5067545;28;20221;-58
2021/01/07 09:44:39;;;;;;;8.50;4.80;;;3.30;99.90;;;;;;5072855;28;20584;-59
2021/01/07 09:47:05;;;;;;;2.77;1.60;;;3.30;99.90;;;;;;5068956;28;20214;-58
2021/01/07 09:49:32;;;;;;;5.82;3.38;;;3.40;99.90;;;;;;5068085;28;20798;-58
2021/01/07 09:51:58;;;;;;;2.00;0.50;;;3.40;99.90;;;;;;5072363;28;20185;-59
2021/01/07 09:54:24;;;;;;;1.70;0.20;;;3.40;99.90;;;;;;5069578;28;20295;-59
2021/01/07 09:56:55;;;;;;;3.55;1.58;;;3.50;99.90;;;;;;5068755;28;20233;-59
2021/01/07 09:59:25;;;;;;;1.95;0.85;;;3.50;99.90;;;;;;5071024;28;20435;-59
2021/01/07 10:01:55;;;;;;;3.28;1.20;;;3.40;99.90;;;;;;5071899;28;20222;-59
2021/01/07 10:04:21;;;;;;;9.82;4.18;;;3.40;99.90;;;;;;5066887;28;20192;-60
2021/01/07 10:06:47;;;;;;;1.80;0.20;;;3.40;99.90;;;;;;5069984;28;20260;-58
2021/01/07 10:09:13;;;;;;;1.70;0.20;;;3.50;99.90;;;;;;5072240;28;20235;-56
2021/01/07 10:11:38;;;;;;;1.80;0.30;;;3.60;99.90;;;;;;5068421;28;20204;-59
2021/01/07 10:14:04;;;;;;;5.93;3.67;;;3.50;99.90;;;;;;5071292;28;20671;-57
2021/01/07 10:16:30;;;;;;;6.43;4.03;;;3.50;99.90;;;;;;5068876;28;20187;-59
2021/01/07 10:18:55;;;;;;;3.00;1.00;;;3.50;99.90;;;;;;5070690;28;20651;-58
2021/01/07 10:21:24;;;;;;;9.07;6.10;;;3.40;99.90;;;;;;5066557;28;20193;-57
2021/01/07 10:23:51;;;;;;;4.05;2.95;;;3.30;99.90;;;;;;5068003;28;20665;-58
2021/01/07 10:26:20;;;;;;;7.05;2.83;;;3.30;99.90;;;;;;5071081;28;20204;-58
2021/01/07 10:28:48;;;;;;;2.00;0.63;;;3.30;99.90;;;;;;5072581;28;20184;-59
2021/01/07 10:31:18;;;;;;;11.20;8.10;;;3.40;99.90;;;;;;5070716;28;20209;-59
2021/01/07 10:33:47;;;;;;;9.02;7.28;;;3.50;99.90;;;;;;5068922;28;20276;-59
2021/01/07 10:36:14;;;;;;;1.70;0.20;;;3.40;99.90;;;;;;5068692;28;20236;-60
2021/01/07 10:38:40;;;;;;;2.13;0.68;;;3.50;99.90;;;;;;5069430;28;20196;-58
2021/01/07 10:41:07;;;;;;;6.60;4.03;;;3.50;99.90;;;;;;5069548;28;20201;-59
2021/01/07 10:43:34;;;;;;;5.13;2.50;;;3.50;99.90;;;;;;5049309;28;20439;-57
2021/01/07 10:46:00;;;;;;;1.73;0.20;;;3.50;99.90;;;;;;5066908;28;20247;-59
2021/01/07 10:48:26;;;;;;;8.23;4.13;;;3.40;99.90;;;;;;5070609;28;20184;-59
2021/01/07 10:50:52;;;;;;;6.57;3.30;;;3.40;99.90;;;;;;5069395;28;20201;-59
2021/01/07 10:53:37;;;;;;;2.47;0.90;;;3.40;99.90;;;;;;5065207;28;20269;-59
2021/01/07 10:56:04;;;;;;;1.85;0.55;;;3.40;99.90;;;;;;5069518;28;20208;-59
2021/01/07 10:58:35;;;;;;;13.52;7.60;;;3.40;99.90;;;;;;5071250;28;20191;-59
2021/01/07 11:01:37;;;;;;;2.22;1.17;;;3.50;99.90;;;;;;5071579;28;20232;-61
2021/01/07 11:04:15;;;;;;;6.47;3.03;;;3.50;99.90;;;;;;5068713;28;20176;-56
2021/01/07 11:07:05;;;;;;;2.10;0.98;;;3.50;99.90;;;;;;5073942;28;20223;-58
2021/01/07 11:09:34;;;;;;;1.80;0.50;;;3.40;99.90;;;;;;5065097;28;20643;-58
2021/01/07 11:12:11;;;;;;;1.70;0.20;;;3.60;99.90;;;;;;5050285;28;20252;-58
2021/01/07 11:14:51;;;;;;;1.70;0.20;;;3.60;99.90;;;;;;5071157;28;20567;-58
2021/01/07 11:17:21;;;;;;;15.32;8.18;;;3.60;99.90;;;;;;5072654;28;20195;-58
2021/01/07 11:19:50;;;;;;;1.70;0.20;;;3.60;99.90;;;;;;5066238;28;20250;-58
2021/01/07 11:22:26;;;;;;;2.20;0.93;;;3.60;99.90;;;;;;5062358;28;20177;-59
2021/01/07 11:24:52;;;;;;;1.70;0.20;;;3.70;99.90;;;;;;5066795;28;20254;-58
2021/01/07 11:27:18;;;;;;;1.80;0.20;;;3.70;99.90;;;;;;5064882;28;20192;-57
2021/01/07 11:29:44;;;;;;;2.33;0.63;;;3.60;99.90;;;;;;5071791;28;20192;-58
2021/01/07 11:32:10;;;;;;;1.80;0.40;;;3.70;99.90;;;;;;5065885;28;21007;-58
2021/01/07 11:34:36;;;;;;;1.90;0.67;;;3.70;99.90;;;;;;5063203;28;20208;-58
2021/01/07 11:37:50;;;;;;;2.47;1.03;;;3.50;99.90;;;;;;5071449;28;20471;-58
2021/01/07 11:40:25;;;;;;;3.72;2.80;;;3.70;99.90;;;;;;5070305;28;20482;-59
2021/01/07 11:42:53;;;;;;;2.08;0.77;;;3.70;99.90;;;;;;5068098;28;20274;-59
2021/01/07 11:45:21;;;;;;;1.73;0.20;;;3.70;99.90;;;;;;5070831;28;20193;-58
2021/01/07 11:48:01;;;;;;;2.00;0.68;;;3.70;99.90;;;;;;5072884;28;20196;-57
2021/01/07 11:50:28;;;;;;;3.55;0.60;;;3.70;99.90;;;;;;5068835;28;20211;-58
2021/01/07 11:52:55;;;;;;;6.75;4.13;;;3.80;99.90;;;;;;5071449;28;20258;-59
2021/01/07 11:55:25;;;;;;;1.70;0.20;;;3.70;99.90;;;;;;5072871;28;20295;-58
2021/01/07 11:57:54;;;;;;;5.50;2.28;;;3.80;99.90;;;;;;5067589;28;20182;-58
2021/01/07 12:00:21;;;;;;;3.92;3.50;;;3.80;99.90;;;;;;5065922;28;20208;-59
2021/01/07 12:02:49;;;;;;;3.85;1.70;;;3.70;99.90;;;;;;5071957;28;20185;-57
2021/01/07 12:05:20;;;;;;;1.70;0.20;;;3.70;99.90;;;;;;5066353;28;20184;-58
2021/01/07 12:08:03;;;;;;;4.20;1.75;;;3.70;99.90;;;;;;5072453;28;20181;-58
2021/01/07 12:10:30;;;;;;;3.65;0.73;;;3.60;99.90;;;;;;5075789;28;20208;-58
2021/01/07 12:12:58;;;;;;;6.22;3.50;;;3.60;99.90;;;;;;5071919;28;20199;-57
2021/01/07 12:15:25;;;;;;;1.80;0.22;;;3.60;99.90;;;;;;5071695;28;20376;-58
2021/01/07 12:17:52;;;;;;;1.70;0.20;;;3.60;99.90;;;;;;5066356;28;20195;-58
2021/01/07 12:20:18;;;;;;;6.10;3.40;;;3.70;99.90;;;;;;5067401;28;20192;-60
2021/01/07 12:22:44;;;;;;;13.30;6.53;;;3.70;99.90;;;;;;5072694;28;20195;-60
2021/01/07 12:25:13;;;;;;;2.28;1.95;;;3.70;99.90;;;;;;5071107;28;20450;-59
2021/01/07 12:27:39;;;;;;;9.07;2.17;;;3.70;99.90;;;;;;5065687;28;20306;-59
2021/01/07 12:30:13;;;;;;;4.47;2.75;;;3.80;99.90;;;;;;5069089;28;20208;-59
2021/01/07 12:32:43;;;;;;;2.30;0.52;;;3.70;99.90;;;;;;5066954;28;20204;-59
2021/01/07 12:35:22;;;;;;;10.10;3.55;;;3.70;99.90;;;;;;5068030;28;20781;-60
2021/01/07 12:38:15;;;;;;;1.70;0.20;;;3.70;99.90;;;;;;5070934;28;20550;-60
2021/01/07 12:40:46;;;;;;;2.50;0.75;;;3.70;99.90;;;;;;5076545;28;20200;-58
2021/01/07 12:43:17;;;;;;;2.80;1.00;;;3.80;99.90;;;;;;5073111;28;20219;-60
2021/01/07 12:45:45;;;;;;;8.75;5.10;;;3.80;99.90;;;;;;5069760;28;20203;-60
2021/01/07 12:48:12;;;;;;;7.88;3.13;;;3.70;99.90;;;;;;5074453;28;20218;-58
2021/01/07 12:50:38;;;;;;;7.10;3.40;;;3.70;99.90;;;;;;5072691;28;20709;-58
2021/01/07 12:53:05;;;;;;;1.70;0.20;;;3.70;99.90;;;;;;5075173;28;20196;-57
2021/01/07 12:55:32;;;;;;;1.70;0.20;;;3.80;99.90;;;;;;5076110;28;20208;-58
2021/01/07 12:58:11;;;;;;;2.67;1.42;;;3.80;99.90;;;;;;5072073;28;20970;-58
2021/01/07 13:00:46;;;;;;;1.73;0.20;;;3.80;99.90;;;;;;5069154;28;20265;-58
2021/01/07 13:03:42;;;;;;;12.48;4.90;;;3.80;99.90;;;;;;5070624;28;20275;-58